Mormon Lake, AZ (86038)

6:20 PM MST on January 30, 2015 (GMT -0700)
APRSWXNET Munds Park AZ US | Change Station
CLOSE
Current Station
Personal Weather Station
Location: Munds Park, AZ
Elevation: 6637 ft
Nearby Weather Stations

Elev 6637 ft 34.94 °N, 111.63 °W | Updated 39 minutes ago

Overcast
Overcast
40 °F
Feels Like 40 °F
N
0
Wind Variable Wind from South
Gusts 3.0 mph

Today
High -- | Low -- °F
--% Chance of Precip.
Yesterday
High -- | Low -- °F
Precip. -- in
7:25 AM 5:52 PM
Waxing Gibbous, 86% visible
Pressure 29.80 in
Visibility 9.0 miles
Clouds Overcast 800 ft
Windchill 40 °F
Dew Point 38 °F
Humidity 93%
Rainfall 0.95 in
Snow Depth Not available.
UV 0 out of 12
Pollen .60 out of 12
Air Quality Not available.
Flu Activity Not available.
METAR KFLG 310057Z 19005KT 9SM OVC008 04/03 A2990 RMK AO2 RAE03B35E57 SLP091 P0000 T00390028

More Conditions Fewer Conditions

Pressure 29.80 in
Visibility 9.0 miles
Clouds Overcast 800 ft
Windchill 40 °F
Dew Point 38 °F
Humidity 93%
Rainfall 0.95 in
Snow Depth Not available.
UV 0 out of 12
Pollen .60 out of 12
Air Quality Not available.
Flu Activity Not available.
METAR KFLG 310057Z 19005KT 9SM OVC008 04/03 A2990 RMK AO2 RAE03B35E57 SLP091 P0000 T00390028

More Conditions Fewer Conditions

10-Day Weather Forecast

Almanac

Astronomy

Jan. 30, 2015 Rise Set
Actual Time
Civil Twilight
Nautical Twilight
Astronomical Twilight
Moon
Length of Visible Light
Length of Day
Tomorrow will be .
, % of the Moon is Illuminated

Today's Extremes

State Highs State Lows

Community

WunderPhotos

Upload Photos

1,791,957 photos uploaded!

WunderBlogs® & News

Nearby

Air Quality

  Air Quality AQ Index Pollutant
Not available.

Snow Depth

Station Depth Elevation

Earthquake Activity

City Distance Mag. Time & Date
Minimum magnitude displayed is 2.5.

Coastal Water Temperatures

Place Temperature

Nearby Weather Stations